Time;durP1;ratioP1;P1;durP2;ratioP2;P2;SDS_P1;SDS_P2;PMS_P1;PMS_P2;Temp;Humidity;BMP_temperature;BMP_pressure;BME280_temperature;BME280_humidity;BME280_pressure;Samples;Min_cycle;Max_cycle;Signal;HPM_P1;HPM_P2
2022/03/20 00:01:13;;;;;;;21.95;16.05;;;;;;;4.59;57.78;102139.53;5013105;28;20121;-63
2022/03/20 00:04:17;;;;;;;23.40;15.90;;;;;;;4.52;57.82;102133.50;5001325;28;20412;-63
2022/03/20 00:07:20;;;;;;;;;;;;;;;4.63;57.75;102125.72;5014136;28;20100;-63
2022/03/20 00:10:23;;;;;;;20.83;16.08;;;;;;;4.41;58.73;102125.75;5013549;28;19920;-63
2022/03/20 00:13:27;;;;;;;22.27;16.08;;;;;;;4.45;58.39;102126.59;5013298;28;20048;-63
2022/03/20 00:16:31;;;;;;;24.40;17.45;;;;;;;3.99;58.97;102117.97;5013294;28;20116;-63
2022/03/20 00:19:34;;;;;;;22.80;15.18;;;;;;;4.22;58.55;102115.41;5012807;28;20050;-63
2022/03/20 00:22:38;;;;;;;21.25;17.35;;;;;;;4.36;58.25;102111.91;5013284;28;20123;-63
2022/03/20 00:25:42;;;;;;;;;;;;;;;4.29;58.09;102110.22;5013890;28;20040;-63
2022/03/20 00:28:46;;;;;;;24.45;18.02;;;;;;;4.34;58.26;102107.59;5013032;28;19921;-63
2022/03/20 00:31:49;;;;;;;23.92;18.17;;;;;;;4.19;59.09;102104.19;5012994;28;20045;-63
2022/03/20 00:34:57;;;;;;;;;;;;;;;4.21;58.53;102101.56;5013470;28;20052;-63
2022/03/20 00:38:00;;;;;;;25.10;18.38;;;;;;;4.28;58.31;102097.28;5013340;28;19920;-64
2022/03/20 00:41:04;;;;;;;23.65;17.40;;;;;;;4.27;57.74;102093.81;5012997;28;20068;-63
2022/03/20 00:44:08;;;;;;;25.70;19.23;;;;;;;4.00;57.78;102094.69;5012397;28;20049;-63
2022/03/20 00:47:13;;;;;;;24.88;18.60;;;;;;;3.79;59.13;102092.09;5011771;28;20099;-63
2022/03/20 00:50:16;;;;;;;23.80;18.45;;;;;;;3.99;58.97;102089.50;5012882;28;20100;-63
2022/03/20 00:53:19;;;;;;;27.80;19.13;;;;;;;4.03;58.42;102086.06;5011283;28;20072;-63
2022/03/20 00:56:23;;;;;;;29.05;20.67;;;;;;;3.86;59.20;102086.94;5011832;28;20146;-63
2022/03/20 00:59:26;;;;;;;28.30;18.95;;;;;;;3.82;58.93;102085.19;5011837;28;20049;-63
2022/03/20 01:02:39;;;;;;;23.63;17.17;;;;;;;3.85;58.59;102077.44;5011526;28;20057;-63
2022/03/20 01:05:42;;;;;;;25.92;17.77;;;;;;;3.76;59.45;102085.19;5012053;28;20120;-63
2022/03/20 01:08:45;;;;;;;22.35;17.50;;;;;;;3.76;58.47;102077.41;5012384;28;20045;-63
2022/03/20 01:11:50;;;;;;;;;;;;;;;3.82;59.04;102072.25;5012867;28;20129;-63
2022/03/20 01:14:54;;;;;;;26.50;17.23;;;;;;;3.89;58.28;102074.00;5012438;28;20015;-63
2022/03/20 01:17:58;;;;;;;22.55;16.95;;;;;;;3.78;59.42;102073.13;5012216;28;20085;-63
2022/03/20 01:21:01;;;;;;;21.13;15.75;;;;;;;3.67;59.67;102067.06;5012403;28;20411;-63
2022/03/20 01:24:05;;;;;;;;;;;;;;;3.65;60.79;102055.88;5012635;28;20135;-63
2022/03/20 01:27:09;;;;;;;23.58;17.10;;;;;;;3.52;60.70;102052.41;5012401;28;19920;-63
2022/03/20 01:30:12;;;;;;;20.25;16.15;;;;;;;3.60;60.62;102055.00;5012021;28;20049;-63
2022/03/20 01:33:16;;;;;;;23.42;16.75;;;;;;;3.59;60.11;102045.50;5012030;28;20546;-63
2022/03/20 01:36:20;;;;;;;24.20;17.20;;;;;;;3.37;61.49;102047.19;5012114;28;20049;-63
2022/03/20 01:39:24;;;;;;;25.88;17.40;;;;;;;3.33;61.09;102043.75;5012270;28;20567;-63
2022/03/20 01:42:28;;;;;;;23.52;17.42;;;;;;;3.37;61.53;102036.84;5011712;28;20626;-63
2022/03/20 01:45:31;;;;;;;25.27;18.40;;;;;;;3.35;61.05;102039.47;5011893;28;20080;-63
2022/03/20 01:48:34;;;;;;;21.85;16.88;;;;;;;3.31;61.24;102029.94;5012005;28;20461;-63
2022/03/20 01:55:01;;;;;;;25.33;17.77;;;;;;;3.14;62.49;102023.91;5011880;28;20192;-63
2022/03/20 01:58:05;;;;;;;26.30;17.13;;;;;;;3.28;62.51;102016.16;5010787;28;20052;-63
2022/03/20 02:01:08;;;;;;;28.25;19.05;;;;;;;2.86;63.55;102005.72;4999702;28;20103;-63
2022/03/20 02:04:15;;;;;;;30.13;19.08;;;;;;;2.89;63.25;102003.16;5011735;28;20527;-63
2022/03/20 02:07:20;;;;;;;23.17;16.73;;;;;;;2.95;63.27;102002.31;5011675;28;20438;-63
2022/03/20 02:10:35;;;;;;;24.63;17.08;;;;;;;2.86;63.78;101999.69;5011413;28;20045;-63
2022/03/20 02:13:38;;;;;;;25.23;16.73;;;;;;;2.88;63.30;101993.69;5011597;28;20084;-63
2022/03/20 02:16:41;;;;;;;23.25;17.05;;;;;;;2.76;63.44;101986.75;5011540;28;20472;-63
2022/03/20 02:19:46;;;;;;;26.10;17.25;;;;;;;2.83;63.80;101991.94;5011544;28;20124;-63
2022/03/20 02:22:49;;;;;;;23.38;17.63;;;;;;;2.69;64.68;101990.16;5011476;28;20459;-63
2022/03/20 02:25:53;;;;;;;;;;;;;;;2.84;64.28;101988.47;5011805;28;20064;-63
2022/03/20 02:28:58;;;;;;;17.52;13.43;;;;;;;2.59;64.63;101987.56;5011373;28;19977;-63
2022/03/20 02:32:05;;;;;;;22.98;17.45;;;;;;;2.51;65.20;101979.75;5011491;28;20088;-63
2022/03/20 02:35:14;;;;;;;24.10;18.48;;;;;;;2.30;66.19;101988.28;5011537;28;20064;-63
2022/03/20 02:38:20;;;;;;;28.15;17.98;;;;;;;2.54;65.49;101980.63;5011390;28;20096;-63
2022/03/20 02:41:24;;;;;;;24.67;18.60;;;;;;;2.56;64.48;101978.06;5011189;28;20072;-63
2022/03/20 02:45:00;;;;;;;24.52;17.02;;;;;;;2.53;64.97;101967.72;4999008;28;20064;-63
2022/03/20 02:48:06;;;;;;;25.63;16.95;;;;;;;2.59;64.54;101964.31;5011154;28;20096;-63
2022/03/20 02:51:10;;;;;;;24.27;17.27;;;;;;;2.60;64.63;101971.19;5010958;28;20123;-63
2022/03/20 02:54:14;;;;;;;25.25;17.63;;;;;;;2.52;64.60;101972.03;5011109;28;20089;-63
2022/03/20 02:57:17;;;;;;;24.13;17.38;;;;;;;2.42;65.51;101977.13;5011138;28;20510;-63
2022/03/20 03:00:22;;;;;;;;;;;;;;;2.35;65.46;101983.13;5011607;28;20076;-63
2022/03/20 03:03:26;;;;;;;23.15;17.17;;;;;;;2.23;66.39;101974.44;5011020;28;19963;-63
2022/03/20 03:06:29;;;;;;;23.00;16.73;;;;;;;2.12;66.88;101975.28;5011111;28;20180;-63
2022/03/20 03:12:55;;;;;;;29.92;18.52;;;;;;;1.98;67.19;101968.31;5014856;28;20048;-63
2022/03/20 03:16:00;;;;;;;;;;;;;;;1.79;67.72;101966.47;5015289;28;20048;-63
2022/03/20 03:19:03;;;;;;;23.73;17.52;;;;;;;1.74;67.91;101957.81;5014508;28;19967;-63
2022/03/20 03:22:07;;;;;;;22.17;16.92;;;;;;;1.61;68.54;101957.72;5014078;28;20053;-63
2022/03/20 03:25:10;;;;;;;24.50;17.33;;;;;;;1.67;67.99;101945.75;5014301;28;20112;-63
2022/03/20 03:28:14;;;;;;;22.77;16.30;;;;;;;1.61;67.91;101952.56;5014331;28;20153;-63
2022/03/20 03:31:17;;;;;;;25.65;17.35;;;;;;;1.72;67.42;101955.22;5014270;28;20088;-63
2022/03/20 03:37:42;;;;;;;23.73;16.65;;;;;;;1.64;67.12;101951.75;5013957;28;20108;-63
2022/03/20 03:40:46;;;;;;;;;;;;;;;1.79;66.72;101948.41;5014247;28;20088;-63
2022/03/20 03:43:49;;;;;;;24.27;16.83;;;;;;;1.85;66.44;101935.53;5013999;28;20385;-63
2022/03/20 03:46:57;;;;;;;22.70;17.17;;;;;;;1.90;66.05;101939.00;5013976;28;20088;-63
2022/03/20 03:50:00;;;;;;;25.42;17.38;;;;;;;1.57;66.96;101939.66;5013982;28;20133;-63
2022/03/20 03:53:05;;;;;;;21.02;15.18;;;;;;;1.69;67.11;101932.03;5012130;28;20073;-63
2022/03/20 03:56:08;;;;;;;24.23;17.17;;;;;;;1.61;67.03;101924.22;5011615;28;20049;-63
2022/03/20 03:59:12;;;;;;;;;;;;;;;1.70;67.48;101930.31;5014213;28;20092;-63
2022/03/20 04:02:15;;;;;;;24.42;16.95;;;;;;;1.81;66.39;101928.63;5013383;28;20334;-63
2022/03/20 04:05:19;;;;;;;23.48;17.70;;;;;;;1.61;66.59;101925.94;5013138;28;20061;-63
2022/03/20 04:08:22;;;;;;;22.50;16.40;;;;;;;1.56;66.87;101912.13;5013318;28;20069;-63
2022/03/20 04:11:25;;;;;;;22.75;16.63;;;;;;;1.58;67.29;101901.00;5013302;28;20044;-63
2022/03/20 04:14:29;;;;;;;20.15;15.38;;;;;;;1.71;66.61;101895.91;5012803;28;20084;-63
2022/03/20 04:17:34;;;;;;;24.88;16.60;;;;;;;1.47;67.17;101887.19;5013190;28;20187;-63
2022/03/20 04:20:37;;;;;;;19.58;15.40;;;;;;;1.39;67.62;101884.53;5012715;28;20057;-63
2022/03/20 04:23:45;;;;;;;25.48;16.63;;;;;;;1.51;66.94;101883.75;5012924;28;20415;-63
2022/03/20 04:26:49;;;;;;;23.30;16.40;;;;;;;1.52;67.30;101875.16;5013207;28;20125;-63
2022/03/20 04:29:53;;;;;;;22.63;17.13;;;;;;;1.54;67.02;101880.34;5013109;28;20052;-63
2022/03/20 04:32:58;;;;;;;23.60;16.40;;;;;;;1.61;66.45;101869.22;5012910;28;20107;-63
2022/03/20 04:36:01;;;;;;;23.30;16.58;;;;;;;1.39;67.13;101863.06;5013200;28;20072;-63
2022/03/20 04:39:05;;;;;;;24.90;16.83;;;;;;;1.29;67.54;101869.00;5012906;28;20049;-63
2022/03/20 04:42:09;;;;;;;;;;;;;;;1.40;67.39;101885.38;5013037;28;20040;-63
2022/03/20 04:45:13;;;;;;;21.90;16.65;;;;;;;1.28;67.77;101877.59;5013096;28;19964;-63
2022/03/20 04:58:31;;;;;;;22.48;16.30;;;;;;;1.25;68.20;101900.75;4977145;28;20060;-63
2022/03/20 05:01:36;;;;;;;22.23;16.95;;;;;;;1.15;68.15;101904.97;4953265;29;20059;-63
2022/03/20 05:04:40;;;;;;;26.15;17.10;;;;;;;1.19;68.17;101911.88;4949625;28;20050;-63
2022/03/20 05:07:43;;;;;;;24.25;17.30;;;;;;;1.30;67.84;101904.22;4953598;28;20552;-63
2022/03/20 05:14:08;;;;;;;23.60;15.32;;;;;;;1.52;67.31;101906.09;4972964;28;20046;-63
2022/03/20 05:17:11;;;;;;;24.48;16.08;;;;;;;1.43;68.00;101925.78;4972896;28;20101;-63
2022/03/20 05:20:15;;;;;;;22.00;16.52;;;;;;;1.54;66.66;101919.88;4972103;28;20152;-63
2022/03/20 05:23:21;;;;;;;;;;;;;;;1.56;67.38;101918.19;4959448;28;20042;-63
2022/03/20 05:26:25;;;;;;;22.55;16.17;;;;;;;1.60;67.27;101919.91;4953504;29;20376;-63
2022/03/20 05:29:29;;;;;;;24.40;17.20;;;;;;;1.57;67.53;101908.72;4953716;29;20516;-63
2022/03/20 05:32:33;;;;;;;25.77;18.23;;;;;;;1.66;67.34;101902.75;4952985;28;20424;-63
2022/03/20 05:35:38;;;;;;;26.95;19.52;;;;;;;1.25;68.29;101911.91;4953132;29;20049;-63
2022/03/20 05:38:42;;;;;;;24.25;16.52;;;;;;;1.03;69.23;101897.97;4950826;29;20079;-63
2022/03/20 05:41:49;;;;;;;;;;;;;;;1.12;69.58;101904.94;4950297;29;20585;-63
2022/03/20 05:44:52;;;;;;;25.52;18.05;;;;;;;1.04;70.18;101899.69;4949617;29;19920;-64
2022/03/20 05:47:56;;;;;;;25.08;17.92;;;;;;;1.02;69.72;101898.84;4950855;28;20062;-63
2022/03/20 05:50:59;;;;;;;26.67;17.55;;;;;;;1.26;69.03;101900.75;4929851;29;20050;-63
2022/03/20 05:54:03;;;;;;;;;;;;;;;1.21;69.40;101905.00;4957137;28;20460;-63
2022/03/20 06:00:29;;;;;;;24.75;17.60;;;;;;;1.10;70.02;101906.63;4935917;28;20430;-63
2022/03/20 06:03:32;;;;;;;24.05;17.50;;;;;;;1.25;69.29;101895.59;4930039;29;20104;-63
2022/03/20 06:06:36;;;;;;;27.08;18.80;;;;;;;1.11;69.66;101908.34;4959364;28;20050;-63
2022/03/20 06:09:40;;;;;;;26.75;16.85;;;;;;;0.87;70.25;101904.69;4949149;29;20050;-63
2022/03/20 06:12:43;;;;;;;23.63;16.15;;;;;;;0.97;70.30;101900.50;4949202;29;20109;-64
2022/03/20 06:15:47;;;;;;;28.73;18.35;;;;;;;1.03;70.22;101894.56;4948013;29;20050;-64
2022/03/20 06:18:50;;;;;;;26.20;17.27;;;;;;;1.04;70.15;101901.41;4948789;29;20480;-63
2022/03/20 06:21:53;;;;;;;23.70;18.25;;;;;;;1.12;70.20;101903.22;4949196;29;20049;-63
2022/03/20 06:24:57;;;;;;;23.52;17.73;;;;;;;0.99;70.57;101903.97;4948372;29;20074;-64
2022/03/20 06:28:02;;;;;;;24.95;17.77;;;;;;;1.16;70.50;101907.53;4947617;29;20564;-63
2022/03/20 06:31:05;;;;;;;23.35;17.52;;;;;;;1.29;70.60;101912.81;4947570;29;20054;-64
2022/03/20 06:34:09;;;;;;;24.95;17.08;;;;;;;1.20;70.48;101912.72;4948293;29;20417;-64
2022/03/20 06:37:12;;;;;;;24.05;17.48;;;;;;;1.17;70.78;101914.41;4949049;29;20047;-63
2022/03/20 06:40:15;;;;;;;23.92;17.35;;;;;;;1.31;70.46;101919.69;4948761;29;20050;-63
2022/03/20 06:43:20;;;;;;;24.38;17.52;;;;;;;1.48;70.13;101921.53;4952875;28;20529;-63
2022/03/20 06:46:26;;;;;;;;;;;;;;;1.53;69.61;101915.56;4951610;29;20276;-64
2022/03/20 06:49:29;;;;;;;20.92;16.40;;;;;;;1.47;69.90;101922.38;4951711;29;19969;-63
2022/03/20 06:52:33;;;;;;;26.77;17.83;;;;;;;1.47;69.84;101912.94;4951047;29;20066;-63
2022/03/20 06:55:36;;;;;;;26.52;17.83;;;;;;;1.44;70.17;101907.78;4952012;29;20453;-63
2022/03/20 06:58:39;;;;;;;25.13;18.55;;;;;;;1.52;70.04;101915.56;4933121;29;20694;-63
2022/03/20 07:01:43;;;;;;;;;;;;;;;1.77;69.37;101914.00;4937401;28;20693;-63
2022/03/20 07:04:51;;;;;;;24.33;17.38;;;;;;;1.66;69.18;101907.91;4951783;29;20006;-63
2022/03/20 07:07:54;;;;;;;26.55;17.75;;;;;;;1.55;69.66;101913.00;4955382;29;20049;-64
2022/03/20 07:10:57;;;;;;;26.85;18.15;;;;;;;1.67;69.13;101909.66;4954660;29;20047;-64
2022/03/20 07:14:01;;;;;;;26.45;17.60;;;;;;;1.76;68.87;101909.72;4954991;29;20106;-64
2022/03/20 07:17:09;;;;;;;26.17;17.55;;;;;;;1.61;68.69;101913.03;4955603;29;20045;-64
2022/03/20 07:20:13;;;;;;;24.48;17.40;;;;;;;1.68;68.80;101901.06;4952567;29;20118;-64
2022/03/20 07:23:16;;;;;;;26.30;18.38;;;;;;;1.72;68.85;101906.22;4951009;29;20058;-63
2022/03/20 07:29:42;;;;;;;25.77;18.88;;;;;;;1.77;68.76;101901.13;4951359;29;20058;-64
2022/03/20 07:32:45;;;;;;;25.33;18.65;;;;;;;1.80;69.07;101886.50;4951358;29;20086;-63
2022/03/20 07:35:49;;;;;;;23.98;17.45;;;;;;;1.87;69.17;101884.81;4268183;28;10000737;-63
2022/03/20 07:38:53;;;;;;;23.35;17.35;;;;;;;2.00;68.25;101873.72;4950525;29;20109;-64
2022/03/20 07:41:56;;;;;;;30.25;21.33;;;;;;;2.15;67.68;101872.06;4960126;28;20054;-64
2022/03/20 07:45:05;;;;;;;161.40;97.68;;;;;;;2.21;67.65;101870.38;4969182;28;20203;-64
2022/03/20 07:48:08;;;;;;;52.35;35.42;;;;;;;2.21;67.45;101892.75;4970758;28;20138;-64
2022/03/20 07:51:12;;;;;;;29.35;21.33;;;;;;;2.29;67.12;101901.34;4970718;28;20108;-63
2022/03/20 07:54:16;;;;;;;76.40;42.75;;;;;;;2.37;66.96;101915.19;4970820;28;20520;-64
2022/03/20 07:57:19;;;;;;;26.35;20.05;;;;;;;2.44;67.22;101897.97;4969600;28;20053;-64
2022/03/20 08:00:22;;;;;;;27.98;18.13;;;;;;;2.54;67.00;101889.41;4970029;28;20105;-64
2022/03/20 08:03:26;;;;;;;;;;;;;;;2.79;65.03;101882.56;4936190;28;20055;-64
2022/03/20 08:06:29;;;;;;;38.28;24.38;;;;;;;3.00;64.25;101886.91;4931851;29;19930;-64
2022/03/20 08:09:32;;;;;;;37.70;25.05;;;;;;;3.25;64.48;101883.47;4931377;29;20047;-64
2022/03/20 08:12:36;;;;;;;;;;;;;;;3.19;64.56;101882.59;4932331;29;20126;-64
2022/03/20 08:15:39;;;;;;;33.25;22.02;;;;;;;3.53;63.52;101877.41;4947298;29;19970;-64
2022/03/20 08:18:46;;;;;;;30.98;21.48;;;;;;;3.94;63.16;101870.41;4948752;29;20054;-64
2022/03/20 08:21:49;;;;;;;28.58;22.15;;;;;;;4.23;63.96;101855.63;4948950;29;20457;-64
2022/03/20 08:24:53;;;;;;;28.63;22.20;;;;;;;4.41;63.29;101866.75;4948066;29;20062;-64
2022/03/20 08:27:56;;;;;;;;;;;;;;;4.61;64.07;101863.19;4949970;29;20508;-64
2022/03/20 08:30:59;;;;;;;32.40;23.60;;;;;;;4.72;61.21;101863.97;4948447;29;19968;-64
2022/03/20 08:34:04;;;;;;;28.77;21.52;;;;;;;4.86;59.81;101862.16;4946364;29;20429;-64
2022/03/20 08:37:07;;;;;;;31.25;23.52;;;;;;;5.05;59.62;101849.06;4927363;29;20392;-64
2022/03/20 08:40:17;;;;;;;32.97;25.80;;;;;;;5.19;59.24;101862.75;4927610;29;20050;-64
2022/03/20 08:43:21;;;;;;;30.63;23.00;;;;;;;5.29;58.60;101869.56;4927210;29;20078;-64
2022/03/20 08:46:25;;;;;;;34.17;25.35;;;;;;;5.50;57.60;101867.66;4927518;29;20051;-64
2022/03/20 08:49:29;;;;;;;31.88;23.45;;;;;;;5.73;56.91;101870.03;4951093;28;20194;-64
2022/03/20 08:52:33;;;;;;;29.25;24.10;;;;;;;6.00;56.64;101876.69;4947170;28;20125;-64
2022/03/20 08:55:36;;;;;;;31.90;23.80;;;;;;;6.20;55.18;101866.91;4949043;29;20654;-65
2022/03/20 08:58:39;;;;;;;34.63;23.45;;;;;;;6.40;55.13;101863.19;4950891;29;20062;-65
2022/03/20 09:01:42;;;;;;;30.67;22.73;;;;;;;6.49;54.07;101863.91;4949628;28;20109;-65
2022/03/20 09:04:46;;;;;;;32.75;25.02;;;;;;;6.39;52.31;101871.88;4950590;28;20047;-65
2022/03/20 09:07:50;;;;;;;32.92;24.85;;;;;;;6.46;51.24;101860.50;4950454;28;20107;-65
2022/03/20 09:10:53;;;;;;;31.58;24.05;;;;;;;6.70;50.38;101870.56;4950138;28;20061;-65
2022/03/20 09:13:57;;;;;;;30.90;24.83;;;;;;;6.98;50.11;101872.72;4950733;29;20058;-65
2022/03/20 09:20:23;;;;;;;31.98;24.75;;;;;;;7.37;48.83;101849.53;4950670;29;19922;-65
2022/03/20 09:23:26;;;;;;;29.77;22.67;;;;;;;7.58;49.13;101859.56;4610145;28;10000372;-65
2022/03/20 09:26:29;;;;;;;30.95;24.00;;;;;;;7.52;48.25;101859.66;4965686;28;20097;-65
2022/03/20 09:29:32;;;;;;;;;;;;;;;7.60;47.09;101854.34;4957781;28;20282;-65
2022/03/20 09:32:37;;;;;;;33.20;24.50;;;;;;;7.73;47.42;101854.97;4948615;29;20478;-65
2022/03/20 09:35:41;;;;;;;30.63;24.05;;;;;;;7.77;46.58;101843.59;4948953;29;20050;-66
2022/03/20 09:38:44;;;;;;;28.92;23.45;;;;;;;7.76;46.23;101858.34;4948922;29;20042;-65
2022/03/20 09:41:48;;;;;;;;;;;;;;;7.83;46.47;101866.91;4950225;29;20186;-65
2022/03/20 09:44:51;;;;;;;35.08;26.45;;;;;;;8.05;47.03;101860.38;4948814;28;20061;-65
2022/03/20 09:47:56;;;;;;;39.13;30.10;;;;;;;8.11;46.55;101859.41;4949535;28;20046;-65
2022/03/20 09:51:02;;;;;;;41.80;31.23;;;;;;;8.24;46.45;101854.78;4949685;28;20139;-65
2022/03/20 09:54:06;;;;;;;70.40;43.78;;;;;;;8.32;46.17;101858.94;4949874;29;20043;-65
2022/03/20 09:57:10;;;;;;;;;;;;;;;8.45;45.55;101859.56;4938490;28;20050;-65
2022/03/20 10:00:16;;;;;;;34.05;23.58;;;;;;;8.37;45.77;101859.69;4949881;29;20384;-66
2022/03/20 10:03:22;;;;;;;31.38;23.38;;;;;;;8.57;46.52;101843.63;4948606;29;20062;-64
2022/03/20 10:06:25;;;;;;;30.05;23.67;;;;;;;8.66;45.69;101842.56;4949758;29;20060;-64
2022/03/20 10:09:29;;;;;;;30.33;24.77;;;;;;;8.69;46.31;101826.00;4949579;29;20116;-64
2022/03/20 10:12:35;;;;;;;28.83;23.27;;;;;;;8.85;46.28;101822.13;4947953;28;20144;-63
2022/03/20 10:15:43;;;;;;;30.20;23.92;;;;;;;8.83;45.66;101831.75;4948197;28;20406;-64
2022/03/20 10:18:46;;;;;;;31.65;24.27;;;;;;;8.95;45.83;101844.50;4948646;28;20182;-64
2022/03/20 10:22:14;;;;;;;30.92;23.88;;;;;;;9.01;45.71;101828.69;4952495;29;20046;-64
2022/03/20 10:25:18;;;;;;;32.50;25.13;;;;;;;9.11;45.67;101820.63;4952918;29;20065;-64
2022/03/20 10:28:21;;;;;;;29.17;23.55;;;;;;;9.31;46.05;101811.38;4953072;29;20057;-64
2022/03/20 10:31:25;;;;;;;31.77;24.77;;;;;;;9.43;46.13;101820.66;4952611;29;20042;-65
2022/03/20 10:34:28;;;;;;;28.10;23.58;;;;;;;9.67;46.76;101813.06;4952265;28;20461;-65
2022/03/20 10:37:44;;;;;;;29.08;23.40;;;;;;;9.75;45.97;101821.50;4951376;28;20071;-65
2022/03/20 10:40:47;;;;;;;31.90;24.70;;;;;;;9.86;45.98;101822.09;4951088;28;20046;-64
2022/03/20 10:43:53;;;;;;;28.83;23.17;;;;;;;10.01;46.16;101819.00;4952069;28;20573;-65
2022/03/20 10:46:59;;;;;;;29.80;24.90;;;;;;;10.12;46.38;101810.88;4947379;28;20899;-65
2022/03/20 10:53:52;;;;;;;33.75;25.10;;;;;;;10.34;47.22;101798.03;4952015;29;20077;-65
2022/03/20 10:56:56;;;;;;;30.30;23.00;;;;;;;10.24;46.85;101814.84;4950762;29;20480;-66
2022/03/20 11:00:14;;;;;;;32.20;24.10;;;;;;;10.25;46.30;101806.97;4951344;29;20050;-65
2022/03/20 11:03:22;;;;;;;28.40;22.20;;;;;;;10.18;46.76;101805.47;4961543;28;20145;-65
2022/03/20 11:06:25;;;;;;;26.20;22.00;;;;;;;10.37;46.34;101802.28;4950880;29;20050;-65
2022/03/20 11:09:29;;;;;;;30.50;22.70;;;;;;;10.60;46.74;101818.13;4951272;29;20062;-66
2022/03/20 11:12:34;;;;;;;28.00;21.90;;;;;;;10.64;46.36;101808.44;4951894;29;20480;-65
2022/03/20 11:15:38;;;;;;;27.70;22.20;;;;;;;10.68;45.95;101804.78;4952200;29;20515;-65
2022/03/20 11:18:43;;;;;;;30.33;23.60;;;;;;;10.74;46.46;101820.28;4952304;29;20105;-65
2022/03/20 11:21:47;;;;;;;28.95;23.13;;;;;;;10.84;45.73;101826.09;4952043;29;20500;-65
2022/03/20 11:24:52;;;;;;;28.52;22.00;;;;;;;10.88;45.96;101832.91;4950426;29;20054;-65
2022/03/20 11:28:01;;;;;;;31.58;24.10;;;;;;;10.88;45.86;101818.09;4950455;29;20106;-66
2022/03/20 11:31:04;;;;;;;27.88;23.08;;;;;;;11.07;45.25;101817.47;4950743;28;20066;-66
2022/03/20 11:34:09;;;;;;;27.63;22.48;;;;;;;11.24;45.49;101830.84;4951154;29;20050;-66
2022/03/20 11:37:16;;;;;;;33.03;23.23;;;;;;;11.10;45.75;101833.06;4950859;29;20042;-66
2022/03/20 11:40:24;;;;;;;31.35;23.83;;;;;;;11.13;46.03;101840.81;4951273;29;20055;-66
2022/03/20 11:43:27;;;;;;;26.35;22.95;;;;;;;11.08;45.82;101832.28;4951526;29;20572;-65
2022/03/20 11:46:33;;;;;;;31.90;24.40;;;;;;;10.92;46.40;101845.88;4951854;29;20058;-65
2022/03/20 11:49:39;;;;;;;28.75;24.55;;;;;;;11.02;46.69;101850.81;4951227;29;20143;-66
2022/03/20 11:52:44;;;;;;;31.52;23.75;;;;;;;11.10;46.35;101833.06;4950253;28;20078;-65
2022/03/20 11:55:47;;;;;;;32.33;23.83;;;;;;;11.01;46.44;101833.38;4951203;28;20129;-65
2022/03/20 11:58:50;;;;;;;29.05;24.63;;;;;;;10.98;46.84;101812.56;4951399;28;20133;-65
2022/03/20 12:02:01;;;;;;;31.90;22.85;;;;;;;11.10;47.12;101817.38;4952066;28;20062;-65
2022/03/20 12:05:42;;;;;;;28.58;23.55;;;;;;;11.37;46.59;101811.19;4950100;28;20098;-66
2022/03/20 12:09:03;;;;;;;38.25;23.63;;;;;;;11.93;45.15;101810.06;4944313;28;20130;-66
2022/03/20 12:12:09;;;;;;;43.05;22.02;;;;;;;11.86;45.84;101798.97;4951209;28;20180;-65
2022/03/20 12:15:17;;;;;;;28.95;21.58;;;;;;;11.76;46.45;101801.97;4951145;29;20046;-65
2022/03/20 12:18:20;;;;;;;47.97;26.05;;;;;;;11.92;46.89;101794.41;4951246;29;20046;-66
2022/03/20 12:21:52;;;;;;;31.77;22.33;;;;;;;11.78;46.63;101795.75;4950676;28;20122;-66
2022/03/20 12:25:02;;;;;;;49.15;27.10;;;;;;;11.59;47.80;101794.72;4950982;29;20106;-66
2022/03/20 12:28:29;;;;;;;36.65;24.60;;;;;;;11.53;47.83;101779.22;4951254;28;20098;-65
2022/03/20 12:31:56;;;;;;;41.83;24.13;;;;;;;11.56;48.31;101792.22;4951192;28;20050;-65
2022/03/20 12:35:02;;;;;;;29.35;23.65;;;;;;;11.80;47.62;101775.56;4951173;28;20102;-65
2022/03/20 12:38:07;;;;;;;54.13;28.30;;;;;;;11.69;48.91;101780.38;4962076;28;20050;-65
2022/03/20 12:41:17;;;;;;;29.20;22.00;;;;;;;11.81;48.08;101768.59;4951691;28;20094;-65
2022/03/20 12:44:24;;;;;;;25.83;21.10;;;;;;;11.97;47.60;101774.13;4951436;28;20050;-65
2022/03/20 12:47:28;;;;;;;25.20;21.38;;;;;;;12.94;46.40;101784.22;4951358;28;20134;-65
2022/03/20 12:50:37;;;;;;;26.08;20.23;;;;;;;12.87;45.75;101772.28;4950422;28;20579;-66
2022/03/20 12:53:46;;;;;;;22.80;20.05;;;;;;;12.66;46.71;101780.09;4950320;29;20105;-66
2022/03/20 12:56:51;;;;;;;24.38;18.98;;;;;;;13.25;44.60;101783.81;4949956;29;20089;-65
2022/03/20 13:00:28;;;;;;;23.60;17.83;;;;;;;13.49;43.88;101777.44;4949530;29;20042;-66
2022/03/20 13:03:32;;;;;;;21.95;18.42;;;;;;;13.11;44.81;101789.59;4948995;29;20461;-66
2022/03/20 13:06:36;;;;;;;20.48;17.13;;;;;;;13.15;45.03;101785.94;4949543;29;20051;-66
2022/03/20 13:09:40;;;;;;;20.65;15.65;;;;;;;13.44;44.52;101786.47;4953284;29;20097;-65
2022/03/20 13:13:12;;;;;;;19.38;15.13;;;;;;;14.56;42.41;101794.47;4952000;29;20082;-65
2022/03/20 13:16:16;;;;;;;19.50;15.45;;;;;;;14.97;41.52;101779.25;4953153;29;20146;-65
2022/03/20 13:19:26;;;;;;;18.65;15.50;;;;;;;15.15;41.22;101787.13;4953347;29;20073;-65
2022/03/20 13:22:37;;;;;;;20.90;15.13;;;;;;;16.13;38.85;101774.00;4953211;29;20250;-66
2022/03/20 13:25:46;;;;;;;17.85;15.25;;;;;;;16.73;37.66;101790.78;4952722;29;20046;-65
2022/03/20 13:28:49;;;;;;;25.33;16.15;;;;;;;17.04;36.76;101785.50;4953283;29;20050;-66
2022/03/20 13:32:09;;;;;;;16.60;14.60;;;;;;;17.32;36.99;101777.63;4953166;29;20473;-66
2022/03/20 13:35:19;;;;;;;20.60;13.93;;;;;;;20.95;30.27;101767.91;4953074;29;20065;-66
2022/03/20 13:38:23;;;;;;;23.02;13.43;;;;;;;18.08;34.19;101768.53;4953038;29;20078;-66
2022/03/20 13:41:27;;;;;;;17.73;11.75;;;;;;;16.41;38.31;101779.44;4952923;29;20053;-66
2022/03/20 13:44:38;;;;;;;14.88;13.30;;;;;;;14.94;41.52;101787.31;4952983;29;20132;-66
2022/03/20 13:47:41;;;;;;;18.35;14.15;;;;;;;14.65;42.21;101784.34;4952954;29;20417;-66
2022/03/20 13:50:49;;;;;;;15.55;13.50;;;;;;;14.27;43.26;101798.47;4912951;29;1148172;-67
2022/03/20 13:54:16;;;;;;;19.17;13.38;;;;;;;13.96;44.13;101789.38;4953706;28;20109;-65
2022/03/20 13:57:20;;;;;;;18.85;14.25;;;;;;;13.99;44.38;101791.88;4953605;28;20082;-65
2022/03/20 14:00:41;;;;;;;19.10;13.45;;;;;;;14.06;44.04;101781.91;4953445;29;20098;-65
2022/03/20 14:03:44;;;;;;;19.90;13.30;;;;;;;14.25;44.06;101781.91;4953407;28;20046;-65
2022/03/20 14:06:54;;;;;;;18.98;14.70;;;;;;;13.80;44.89;101791.84;4953407;28;20465;-65
2022/03/20 14:09:57;;;;;;;18.90;14.85;;;;;;;14.80;42.97;101795.03;4953469;28;20050;-65
2022/03/20 14:13:21;;;;;;;21.15;14.05;;;;;;;15.28;41.44;101788.19;4953352;28;20095;-65
2022/03/20 14:16:24;;;;;;;21.02;14.18;;;;;;;15.83;40.05;101793.22;4953194;28;20174;-65
2022/03/20 14:19:28;;;;;;;17.70;12.13;;;;;;;15.82;40.48;101780.97;4953362;28;20094;-66
2022/03/20 14:22:42;;;;;;;20.55;12.32;;;;;;;18.40;34.97;101794.75;4953281;28;20102;-66
2022/03/20 14:25:46;;;;;;;17.13;11.95;;;;;;;17.44;37.16;101783.97;4953272;28;20050;-66
2022/03/20 14:29:13;;;;;;;17.52;12.45;;;;;;;15.83;40.17;101787.09;4953142;29;20066;-66
2022/03/20 14:39:27;;;;;;;17.45;12.18;;;;;;;18.50;34.40;101787.88;4949862;28;20159;-66
2022/03/20 14:42:34;;;;;;;13.55;12.00;;;;;;;19.76;32.94;101784.69;4949643;29;20073;-66
2022/03/20 14:45:39;;;;;;;15.02;12.55;;;;;;;19.35;32.83;101791.88;4949338;29;20050;-66
2022/03/20 14:48:42;;;;;;;22.90;11.32;;;;;;;19.29;32.33;101792.31;4949465;29;20050;-66
2022/03/20 14:51:47;;;;;;;13.93;10.48;;;;;;;19.22;32.45;101791.88;4948805;28;20112;-67
2022/03/20 14:54:54;;;;;;;15.25;11.57;;;;;;;20.50;31.11;101798.78;4949702;29;20416;-66
2022/03/20 14:57:59;;;;;;;14.63;12.15;;;;;;;20.63;30.33;101792.47;4949070;28;20131;-67
2022/03/20 15:01:02;;;;;;;15.68;10.73;;;;;;;18.56;33.82;101798.91;4930769;29;20489;-66
2022/03/20 15:04:06;;;;;;;18.42;11.93;;;;;;;17.50;35.83;101790.69;4929823;29;20113;-66